sensor_id;sensor_type;location;lat;lon;timestamp;temperature;humidity
52973;DHT22;38837;48.916;2.336;2024-03-22T00:00:22;28.50;34.50
52973;DHT22;38837;48.916;2.336;2024-03-22T00:02:24;28.50;34.50
52973;DHT22;38837;48.916;2.336;2024-03-22T00:04:25;28.50;34.60
52973;DHT22;38837;48.916;2.336;2024-03-22T00:06:27;28.50;34.60
52973;DHT22;38837;48.916;2.336;2024-03-22T00:08:28;28.50;34.60
52973;DHT22;38837;48.916;2.336;2024-03-22T00:10:30;28.50;34.60
52973;DHT22;38837;48.916;2.336;2024-03-22T00:12:31;28.50;34.60
52973;DHT22;38837;48.916;2.336;2024-03-22T00:14:32;28.50;34.60
52973;DHT22;38837;48.916;2.336;2024-03-22T00:16:34;28.50;34.60
52973;DHT22;38837;48.916;2.336;2024-03-22T00:18:36;28.50;34.50
52973;DHT22;38837;48.916;2.336;2024-03-22T00:20:37;28.50;34.50
52973;DHT22;38837;48.916;2.336;2024-03-22T00:22:38;28.50;34.50
52973;DHT22;38837;48.916;2.336;2024-03-22T00:24:40;28.50;34.50
52973;DHT22;38837;48.916;2.336;2024-03-22T00:26:41;28.50;34.60
52973;DHT22;38837;48.916;2.336;2024-03-22T00:28:43;28.50;34.60
52973;DHT22;38837;48.916;2.336;2024-03-22T00:30:44;28.50;34.60
52973;DHT22;38837;48.916;2.336;2024-03-22T00:32:45;28.50;34.60
52973;DHT22;38837;48.916;2.336;2024-03-22T00:34:48;28.40;34.60
52973;DHT22;38837;48.916;2.336;2024-03-22T00:36:49;28.50;34.60
52973;DHT22;38837;48.916;2.336;2024-03-22T00:38:52;28.50;34.70
52973;DHT22;38837;48.916;2.336;2024-03-22T00:40:53;28.40;34.60
52973;DHT22;38837;48.916;2.336;2024-03-22T00:42:55;28.40;34.60
52973;DHT22;38837;48.916;2.336;2024-03-22T00:44:56;28.50;34.70
52973;DHT22;38837;48.916;2.336;2024-03-22T00:46:59;28.50;34.70
52973;DHT22;38837;48.916;2.336;2024-03-22T00:49:00;28.60;34.70
52973;DHT22;38837;48.916;2.336;2024-03-22T00:51:02;28.50;34.60
52973;DHT22;38837;48.916;2.336;2024-03-22T00:53:04;28.50;34.60
52973;DHT22;38837;48.916;2.336;2024-03-22T00:55:06;28.50;34.60
52973;DHT22;38837;48.916;2.336;2024-03-22T00:57:08;28.50;34.60
52973;DHT22;38837;48.916;2.336;2024-03-22T00:59:09;28.50;34.60
52973;DHT22;38837;48.916;2.336;2024-03-22T01:01:10;28.40;34.60
52973;DHT22;38837;48.916;2.336;2024-03-22T01:03:12;28.40;34.60
52973;DHT22;38837;48.916;2.336;2024-03-22T01:05:13;28.50;34.70
52973;DHT22;38837;48.916;2.336;2024-03-22T01:07:15;28.40;35.20
52973;DHT22;38837;48.916;2.336;2024-03-22T01:09:17;28.40;34.70
52973;DHT22;38837;48.916;2.336;2024-03-22T01:11:18;28.40;34.70
52973;DHT22;38837;48.916;2.336;2024-03-22T01:13:20;28.40;34.70
52973;DHT22;38837;48.916;2.336;2024-03-22T01:15:21;28.40;34.70
52973;DHT22;38837;48.916;2.336;2024-03-22T01:17:23;28.40;34.70
52973;DHT22;38837;48.916;2.336;2024-03-22T01:19:24;28.50;34.70
52973;DHT22;38837;48.916;2.336;2024-03-22T01:21:26;28.50;34.70
52973;DHT22;38837;48.916;2.336;2024-03-22T01:23:28;28.50;34.60
52973;DHT22;38837;48.916;2.336;2024-03-22T01:25:29;28.50;34.70
52973;DHT22;38837;48.916;2.336;2024-03-22T01:27:31;28.50;34.60
52973;DHT22;38837;48.916;2.336;2024-03-22T01:29:32;28.40;34.60
52973;DHT22;38837;48.916;2.336;2024-03-22T01:31:33;28.40;34.70
52973;DHT22;38837;48.916;2.336;2024-03-22T01:33:35;28.40;34.70
52973;DHT22;38837;48.916;2.336;2024-03-22T01:35:36;28.40;34.60
52973;DHT22;38837;48.916;2.336;2024-03-22T01:37:38;28.40;34.70
52973;DHT22;38837;48.916;2.336;2024-03-22T01:39:39;28.40;34.70
52973;DHT22;38837;48.916;2.336;2024-03-22T01:41:41;28.40;34.70
52973;DHT22;38837;48.916;2.336;2024-03-22T01:43:42;28.40;34.70
52973;DHT22;38837;48.916;2.336;2024-03-22T01:45:44;28.40;34.70
52973;DHT22;38837;48.916;2.336;2024-03-22T01:47:45;28.40;34.60
52973;DHT22;38837;48.916;2.336;2024-03-22T01:49:48;28.40;34.70
52973;DHT22;38837;48.916;2.336;2024-03-22T01:51:50;28.50;34.70
52973;DHT22;38837;48.916;2.336;2024-03-22T01:53:53;28.50;34.70
52973;DHT22;38837;48.916;2.336;2024-03-22T01:55:54;28.40;34.60
52973;DHT22;38837;48.916;2.336;2024-03-22T01:57:56;28.50;34.70
52973;DHT22;38837;48.916;2.336;2024-03-22T01:59:59;28.40;34.60
52973;DHT22;38837;48.916;2.336;2024-03-22T02:02:01;28.40;34.60
52973;DHT22;38837;48.916;2.336;2024-03-22T02:04:03;28.50;34.70
52973;DHT22;38837;48.916;2.336;2024-03-22T02:06:05;28.40;34.60
52973;DHT22;38837;48.916;2.336;2024-03-22T02:08:06;28.40;34.60
52973;DHT22;38837;48.916;2.336;2024-03-22T02:10:09;28.40;34.60
52973;DHT22;38837;48.916;2.336;2024-03-22T02:12:14;28.40;34.60
52973;DHT22;38837;48.916;2.336;2024-03-22T02:14:17;28.40;34.70
52973;DHT22;38837;48.916;2.336;2024-03-22T02:16:18;28.40;34.70
52973;DHT22;38837;48.916;2.336;2024-03-22T02:18:20;28.40;34.70
52973;DHT22;38837;48.916;2.336;2024-03-22T02:20:21;28.40;34.60
52973;DHT22;38837;48.916;2.336;2024-03-22T02:22:23;28.40;34.60
52973;DHT22;38837;48.916;2.336;2024-03-22T02:24:24;28.40;34.60
52973;DHT22;38837;48.916;2.336;2024-03-22T02:26:26;28.40;34.60
52973;DHT22;38837;48.916;2.336;2024-03-22T02:28:27;28.40;34.60
52973;DHT22;38837;48.916;2.336;2024-03-22T02:30:29;28.40;34.60
52973;DHT22;38837;48.916;2.336;2024-03-22T02:32:30;28.40;34.60
52973;DHT22;38837;48.916;2.336;2024-03-22T02:34:32;28.40;34.60
52973;DHT22;38837;48.916;2.336;2024-03-22T02:36:33;28.40;34.70
52973;DHT22;38837;48.916;2.336;2024-03-22T02:38:34;28.40;34.60
52973;DHT22;38837;48.916;2.336;2024-03-22T02:40:36;28.40;34.60
52973;DHT22;38837;48.916;2.336;2024-03-22T02:42:37;28.40;34.60
52973;DHT22;38837;48.916;2.336;2024-03-22T02:44:39;28.40;34.60
52973;DHT22;38837;48.916;2.336;2024-03-22T02:46:43;28.40;34.70
52973;DHT22;38837;48.916;2.336;2024-03-22T02:48:45;28.40;34.70
52973;DHT22;38837;48.916;2.336;2024-03-22T02:50:46;28.40;34.70
52973;DHT22;38837;48.916;2.336;2024-03-22T02:52:50;28.40;35.20
52973;DHT22;38837;48.916;2.336;2024-03-22T02:54:52;28.40;34.60
52973;DHT22;38837;48.916;2.336;2024-03-22T02:56:53;28.40;34.60
52973;DHT22;38837;48.916;2.336;2024-03-22T02:58:54;28.40;34.60
52973;DHT22;38837;48.916;2.336;2024-03-22T03:00:56;28.40;34.60
52973;DHT22;38837;48.916;2.336;2024-03-22T03:02:58;28.40;34.70
52973;DHT22;38837;48.916;2.336;2024-03-22T03:04:59;28.40;34.60
52973;DHT22;38837;48.916;2.336;2024-03-22T03:07:01;28.40;34.70
52973;DHT22;38837;48.916;2.336;2024-03-22T03:09:02;28.40;34.70
52973;DHT22;38837;48.916;2.336;2024-03-22T03:11:06;28.40;34.60
52973;DHT22;38837;48.916;2.336;2024-03-22T03:13:08;28.40;34.60
52973;DHT22;38837;48.916;2.336;2024-03-22T03:15:09;28.40;34.60
52973;DHT22;38837;48.916;2.336;2024-03-22T03:17:11;28.40;34.70
52973;DHT22;38837;48.916;2.336;2024-03-22T03:19:12;28.30;34.60
52973;DHT22;38837;48.916;2.336;2024-03-22T03:21:14;28.30;34.70
52973;DHT22;38837;48.916;2.336;2024-03-22T03:23:15;28.40;34.70
52973;DHT22;38837;48.916;2.336;2024-03-22T03:25:17;28.30;34.70
52973;DHT22;38837;48.916;2.336;2024-03-22T03:27:18;28.30;34.60
52973;DHT22;38837;48.916;2.336;2024-03-22T03:29:20;28.30;34.60
52973;DHT22;38837;48.916;2.336;2024-03-22T03:31:21;28.40;34.70
52973;DHT22;38837;48.916;2.336;2024-03-22T03:33:23;28.30;34.60
52973;DHT22;38837;48.916;2.336;2024-03-22T03:35:24;28.40;34.60
52973;DHT22;38837;48.916;2.336;2024-03-22T03:37:27;28.30;35.20
52973;DHT22;38837;48.916;2.336;2024-03-22T03:39:28;28.40;34.60
52973;DHT22;38837;48.916;2.336;2024-03-22T03:41:30;28.30;34.60
52973;DHT22;38837;48.916;2.336;2024-03-22T03:43:32;28.30;34.60
52973;DHT22;38837;48.916;2.336;2024-03-22T03:45:36;28.30;34.60
52973;DHT22;38837;48.916;2.336;2024-03-22T03:47:38;28.40;34.70
52973;DHT22;38837;48.916;2.336;2024-03-22T03:49:39;28.30;34.60
52973;DHT22;38837;48.916;2.336;2024-03-22T03:51:41;28.40;34.70
52973;DHT22;38837;48.916;2.336;2024-03-22T03:53:42;28.30;34.60
52973;DHT22;38837;48.916;2.336;2024-03-22T03:55:43;28.30;34.60
52973;DHT22;38837;48.916;2.336;2024-03-22T03:57:45;28.30;34.60
52973;DHT22;38837;48.916;2.336;2024-03-22T03:59:46;28.40;34.60
52973;DHT22;38837;48.916;2.336;2024-03-22T04:01:48;28.30;34.60
52973;DHT22;38837;48.916;2.336;2024-03-22T04:03:49;28.40;34.60
52973;DHT22;38837;48.916;2.336;2024-03-22T04:05:57;28.30;34.50
52973;DHT22;38837;48.916;2.336;2024-03-22T04:07:58;28.30;34.50
52973;DHT22;38837;48.916;2.336;2024-03-22T04:10:00;28.30;34.50
52973;DHT22;38837;48.916;2.336;2024-03-22T04:12:01;28.30;34.50
52973;DHT22;38837;48.916;2.336;2024-03-22T04:14:04;28.30;34.50
52973;DHT22;38837;48.916;2.336;2024-03-22T04:16:05;28.30;34.50
52973;DHT22;38837;48.916;2.336;2024-03-22T04:18:07;28.30;34.50
52973;DHT22;38837;48.916;2.336;2024-03-22T04:20:08;28.30;34.60
52973;DHT22;38837;48.916;2.336;2024-03-22T04:22:10;28.30;34.60
52973;DHT22;38837;48.916;2.336;2024-03-22T04:24:11;28.30;34.60
52973;DHT22;38837;48.916;2.336;2024-03-22T04:26:13;28.30;34.60
52973;DHT22;38837;48.916;2.336;2024-03-22T04:28:14;28.30;34.50
52973;DHT22;38837;48.916;2.336;2024-03-22T04:30:15;28.30;34.50
52973;DHT22;38837;48.916;2.336;2024-03-22T04:32:17;28.30;34.50
52973;DHT22;38837;48.916;2.336;2024-03-22T04:34:19;28.30;34.50
52973;DHT22;38837;48.916;2.336;2024-03-22T04:36:20;28.30;34.50
52973;DHT22;38837;48.916;2.336;2024-03-22T04:38:22;28.30;34.50
52973;DHT22;38837;48.916;2.336;2024-03-22T04:40:23;28.30;34.50
52973;DHT22;38837;48.916;2.336;2024-03-22T04:42:26;28.30;34.50
52973;DHT22;38837;48.916;2.336;2024-03-22T04:44:27;28.30;34.50
52973;DHT22;38837;48.916;2.336;2024-03-22T04:46:28;28.30;34.50
52973;DHT22;38837;48.916;2.336;2024-03-22T04:48:30;28.20;34.40
52973;DHT22;38837;48.916;2.336;2024-03-22T04:50:31;28.30;34.60
52973;DHT22;38837;48.916;2.336;2024-03-22T04:52:33;28.30;34.50
52973;DHT22;38837;48.916;2.336;2024-03-22T04:54:34;28.30;34.50
52973;DHT22;38837;48.916;2.336;2024-03-22T04:56:36;28.30;34.60
52973;DHT22;38837;48.916;2.336;2024-03-22T04:58:37;28.30;34.50
52973;DHT22;38837;48.916;2.336;2024-03-22T05:00:38;28.20;34.50
52973;DHT22;38837;48.916;2.336;2024-03-22T05:02:40;28.30;34.50
52973;DHT22;38837;48.916;2.336;2024-03-22T05:04:41;28.30;34.50
52973;DHT22;38837;48.916;2.336;2024-03-22T05:06:43;28.20;34.50
52973;DHT22;38837;48.916;2.336;2024-03-22T05:08:44;28.30;34.50
52973;DHT22;38837;48.916;2.336;2024-03-22T05:10:45;28.20;34.40
52973;DHT22;38837;48.916;2.336;2024-03-22T05:12:47;28.20;34.50
52973;DHT22;38837;48.916;2.336;2024-03-22T05:14:48;28.30;34.60
52973;DHT22;38837;48.916;2.336;2024-03-22T05:16:49;28.30;34.50
52973;DHT22;38837;48.916;2.336;2024-03-22T05:18:51;28.30;34.50
52973;DHT22;38837;48.916;2.336;2024-03-22T05:20:52;28.20;34.50
52973;DHT22;38837;48.916;2.336;2024-03-22T05:22:54;28.20;34.50
52973;DHT22;38837;48.916;2.336;2024-03-22T05:24:56;28.20;35.10
52973;DHT22;38837;48.916;2.336;2024-03-22T05:26:58;28.20;34.60
52973;DHT22;38837;48.916;2.336;2024-03-22T05:28:59;28.20;34.60
52973;DHT22;38837;48.916;2.336;2024-03-22T05:31:01;28.20;34.60
52973;DHT22;38837;48.916;2.336;2024-03-22T05:33:02;28.20;34.60
52973;DHT22;38837;48.916;2.336;2024-03-22T05:35:04;28.20;34.50
52973;DHT22;38837;48.916;2.336;2024-03-22T05:37:06;28.20;34.50
52973;DHT22;38837;48.916;2.336;2024-03-22T05:39:07;28.20;34.50
52973;DHT22;38837;48.916;2.336;2024-03-22T05:41:09;28.20;34.40
52973;DHT22;38837;48.916;2.336;2024-03-22T05:43:10;28.20;34.40
52973;DHT22;38837;48.916;2.336;2024-03-22T05:45:12;28.30;34.50
52973;DHT22;38837;48.916;2.336;2024-03-22T05:47:13;28.20;34.40
52973;DHT22;38837;48.916;2.336;2024-03-22T05:49:16;28.20;34.50
52973;DHT22;38837;48.916;2.336;2024-03-22T05:51:17;28.20;34.50
52973;DHT22;38837;48.916;2.336;2024-03-22T05:53:19;28.10;34.50
52973;DHT22;38837;48.916;2.336;2024-03-22T05:55:20;28.10;34.50
52973;DHT22;38837;48.916;2.336;2024-03-22T05:57:22;28.10;34.60
52973;DHT22;38837;48.916;2.336;2024-03-22T05:59:23;28.10;34.60
52973;DHT22;38837;48.916;2.336;2024-03-22T06:01:25;28.20;34.60
52973;DHT22;38837;48.916;2.336;2024-03-22T06:03:26;28.20;34.50
52973;DHT22;38837;48.916;2.336;2024-03-22T06:05:28;28.20;34.50
52973;DHT22;38837;48.916;2.336;2024-03-22T06:07:29;28.20;34.40
52973;DHT22;38837;48.916;2.336;2024-03-22T06:09:31;28.20;34.40
52973;DHT22;38837;48.916;2.336;2024-03-22T06:11:38;28.20;34.40
52973;DHT22;38837;48.916;2.336;2024-03-22T06:13:39;28.20;34.40
52973;DHT22;38837;48.916;2.336;2024-03-22T06:15:43;28.20;34.30
52973;DHT22;38837;48.916;2.336;2024-03-22T06:17:46;28.20;34.40
52973;DHT22;38837;48.916;2.336;2024-03-22T06:19:48;28.20;34.40
52973;DHT22;38837;48.916;2.336;2024-03-22T06:21:50;28.10;34.40
52973;DHT22;38837;48.916;2.336;2024-03-22T06:23:51;28.10;34.40
52973;DHT22;38837;48.916;2.336;2024-03-22T06:25:54;28.10;34.50
52973;DHT22;38837;48.916;2.336;2024-03-22T06:27:55;28.10;34.50
52973;DHT22;38837;48.916;2.336;2024-03-22T06:29:56;28.10;34.50
52973;DHT22;38837;48.916;2.336;2024-03-22T06:31:58;28.10;34.50
52973;DHT22;38837;48.916;2.336;2024-03-22T06:33:59;28.10;34.50
52973;DHT22;38837;48.916;2.336;2024-03-22T06:36:03;28.10;34.50
52973;DHT22;38837;48.916;2.336;2024-03-22T06:38:05;28.10;34.40
52973;DHT22;38837;48.916;2.336;2024-03-22T06:40:07;28.10;34.50
52973;DHT22;38837;48.916;2.336;2024-03-22T06:42:08;28.10;34.50
52973;DHT22;38837;48.916;2.336;2024-03-22T06:44:10;28.20;34.50
52973;DHT22;38837;48.916;2.336;2024-03-22T06:46:13;28.10;34.50
52973;DHT22;38837;48.916;2.336;2024-03-22T06:48:14;28.10;34.50
52973;DHT22;38837;48.916;2.336;2024-03-22T06:50:16;28.10;34.50
52973;DHT22;38837;48.916;2.336;2024-03-22T06:52:27;28.10;34.50
52973;DHT22;38837;48.916;2.336;2024-03-22T06:54:29;28.20;34.50
52973;DHT22;38837;48.916;2.336;2024-03-22T06:56:30;28.10;34.50
52973;DHT22;38837;48.916;2.336;2024-03-22T06:58:32;28.10;34.50
52973;DHT22;38837;48.916;2.336;2024-03-22T07:00:33;28.10;34.50
52973;DHT22;38837;48.916;2.336;2024-03-22T07:02:37;28.10;34.50
52973;DHT22;38837;48.916;2.336;2024-03-22T07:04:39;28.10;34.50
52973;DHT22;38837;48.916;2.336;2024-03-22T07:06:40;28.10;34.40
52973;DHT22;38837;48.916;2.336;2024-03-22T07:08:43;28.10;34.50
52973;DHT22;38837;48.916;2.336;2024-03-22T07:10:44;28.20;34.50
52973;DHT22;38837;48.916;2.336;2024-03-22T07:12:46;28.20;34.50
52973;DHT22;38837;48.916;2.336;2024-03-22T07:14:48;28.20;34.40
52973;DHT22;38837;48.916;2.336;2024-03-22T07:16:49;28.20;34.40
52973;DHT22;38837;48.916;2.336;2024-03-22T07:18:51;28.20;34.40
52973;DHT22;38837;48.916;2.336;2024-03-22T07:20:52;28.20;34.40
52973;DHT22;38837;48.916;2.336;2024-03-22T07:22:53;28.20;34.40
52973;DHT22;38837;48.916;2.336;2024-03-22T07:24:55;28.20;34.40
52973;DHT22;38837;48.916;2.336;2024-03-22T07:26:57;28.20;34.40
52973;DHT22;38837;48.916;2.336;2024-03-22T07:28:58;28.20;34.50
52973;DHT22;38837;48.916;2.336;2024-03-22T07:31:00;28.10;34.50
52973;DHT22;38837;48.916;2.336;2024-03-22T07:33:01;28.20;34.50
52973;DHT22;38837;48.916;2.336;2024-03-22T07:35:02;28.20;34.50
52973;DHT22;38837;48.916;2.336;2024-03-22T07:37:04;28.20;34.50
52973;DHT22;38837;48.916;2.336;2024-03-22T07:39:05;28.20;34.50
52973;DHT22;38837;48.916;2.336;2024-03-22T07:41:07;28.20;34.50
52973;DHT22;38837;48.916;2.336;2024-03-22T07:43:08;28.20;34.50
52973;DHT22;38837;48.916;2.336;2024-03-22T07:45:10;28.30;34.50
52973;DHT22;38837;48.916;2.336;2024-03-22T07:47:11;28.30;34.40
52973;DHT22;38837;48.916;2.336;2024-03-22T07:49:13;28.30;34.40
52973;DHT22;38837;48.916;2.336;2024-03-22T07:51:14;28.30;34.40
52973;DHT22;38837;48.916;2.336;2024-03-22T07:53:16;28.30;34.50
52973;DHT22;38837;48.916;2.336;2024-03-22T07:55:17;28.20;34.40
52973;DHT22;38837;48.916;2.336;2024-03-22T07:57:19;28.30;34.50
52973;DHT22;38837;48.916;2.336;2024-03-22T07:59:21;28.30;34.50
52973;DHT22;38837;48.916;2.336;2024-03-22T08:01:23;28.20;34.40
52973;DHT22;38837;48.916;2.336;2024-03-22T08:03:24;28.20;34.50
52973;DHT22;38837;48.916;2.336;2024-03-22T08:05:26;28.30;34.50
52973;DHT22;38837;48.916;2.336;2024-03-22T08:07:27;28.30;34.50
52973;DHT22;38837;48.916;2.336;2024-03-22T08:09:29;28.30;34.40
52973;DHT22;38837;48.916;2.336;2024-03-22T08:11:31;28.30;34.40
52973;DHT22;38837;48.916;2.336;2024-03-22T08:13:32;28.40;34.40
52973;DHT22;38837;48.916;2.336;2024-03-22T08:15:33;28.40;34.30
52973;DHT22;38837;48.916;2.336;2024-03-22T08:17:36;28.50;34.40
52973;DHT22;38837;48.916;2.336;2024-03-22T08:19:37;28.50;34.40
52973;DHT22;38837;48.916;2.336;2024-03-22T08:21:39;28.40;34.30
52973;DHT22;38837;48.916;2.336;2024-03-22T08:23:40;28.50;34.40
52973;DHT22;38837;48.916;2.336;2024-03-22T08:25:42;28.40;34.30
52973;DHT22;38837;48.916;2.336;2024-03-22T08:27:44;28.40;34.40
52973;DHT22;38837;48.916;2.336;2024-03-22T08:29:45;28.40;34.40
52973;DHT22;38837;48.916;2.336;2024-03-22T08:31:46;28.40;34.50
52973;DHT22;38837;48.916;2.336;2024-03-22T08:33:48;28.40;34.50
52973;DHT22;38837;48.916;2.336;2024-03-22T08:35:49;28.40;34.50
52973;DHT22;38837;48.916;2.336;2024-03-22T08:37:51;28.40;34.50
52973;DHT22;38837;48.916;2.336;2024-03-22T08:39:55;28.40;34.40
52973;DHT22;38837;48.916;2.336;2024-03-22T08:41:57;28.40;34.40
52973;DHT22;38837;48.916;2.336;2024-03-22T08:43:59;28.50;34.40
52973;DHT22;38837;48.916;2.336;2024-03-22T08:46:00;28.50;34.30
52973;DHT22;38837;48.916;2.336;2024-03-22T08:48:01;28.50;34.20
52973;DHT22;38837;48.916;2.336;2024-03-22T08:50:03;28.60;34.40
52973;DHT22;38837;48.916;2.336;2024-03-22T08:52:05;28.60;34.40
52973;DHT22;38837;48.916;2.336;2024-03-22T08:54:07;28.50;34.30
52973;DHT22;38837;48.916;2.336;2024-03-22T08:56:09;28.50;34.30
52973;DHT22;38837;48.916;2.336;2024-03-22T08:58:10;28.50;34.30
52973;DHT22;38837;48.916;2.336;2024-03-22T09:00:12;28.50;34.40
52973;DHT22;38837;48.916;2.336;2024-03-22T09:02:13;28.50;34.40
52973;DHT22;38837;48.916;2.336;2024-03-22T09:04:15;28.50;34.40
52973;DHT22;38837;48.916;2.336;2024-03-22T09:06:17;28.50;34.40
52973;DHT22;38837;48.916;2.336;2024-03-22T09:08:19;28.50;34.40
52973;DHT22;38837;48.916;2.336;2024-03-22T09:10:20;28.50;34.40
52973;DHT22;38837;48.916;2.336;2024-03-22T09:12:22;28.60;34.40
52973;DHT22;38837;48.916;2.336;2024-03-22T09:14:23;28.60;34.90
52973;DHT22;38837;48.916;2.336;2024-03-22T09:16:25;28.70;34.30
52973;DHT22;38837;48.916;2.336;2024-03-22T09:18:27;28.70;34.30
52973;DHT22;38837;48.916;2.336;2024-03-22T09:20:28;28.70;34.30
52973;DHT22;38837;48.916;2.336;2024-03-22T09:22:29;28.60;34.30
52973;DHT22;38837;48.916;2.336;2024-03-22T09:24:33;28.60;34.30
52973;DHT22;38837;48.916;2.336;2024-03-22T09:26:35;28.60;34.30
52973;DHT22;38837;48.916;2.336;2024-03-22T09:28:36;28.60;34.30
52973;DHT22;38837;48.916;2.336;2024-03-22T09:30:38;28.60;34.40
52973;DHT22;38837;48.916;2.336;2024-03-22T09:32:40;28.60;34.40
52973;DHT22;38837;48.916;2.336;2024-03-22T09:34:42;28.50;34.40
52973;DHT22;38837;48.916;2.336;2024-03-22T09:36:43;28.60;34.50
52973;DHT22;38837;48.916;2.336;2024-03-22T09:38:45;28.60;34.50
52973;DHT22;38837;48.916;2.336;2024-03-22T09:40:46;28.60;34.50
52973;DHT22;38837;48.916;2.336;2024-03-22T09:42:49;28.60;34.50
52973;DHT22;38837;48.916;2.336;2024-03-22T09:44:51;28.60;34.40
52973;DHT22;38837;48.916;2.336;2024-03-22T09:46:52;28.60;34.40
52973;DHT22;38837;48.916;2.336;2024-03-22T09:48:54;28.50;34.40
52973;DHT22;38837;48.916;2.336;2024-03-22T09:50:56;28.50;34.50
52973;DHT22;38837;48.916;2.336;2024-03-22T09:52:58;28.50;34.40
52973;DHT22;38837;48.916;2.336;2024-03-22T09:54:59;28.50;34.60
52973;DHT22;38837;48.916;2.336;2024-03-22T09:57:01;28.50;34.50
52973;DHT22;38837;48.916;2.336;2024-03-22T09:59:02;28.50;34.50
52973;DHT22;38837;48.916;2.336;2024-03-22T10:01:04;28.50;34.50
52973;DHT22;38837;48.916;2.336;2024-03-22T10:03:06;28.50;34.50
52973;DHT22;38837;48.916;2.336;2024-03-22T10:05:08;28.50;34.50
52973;DHT22;38837;48.916;2.336;2024-03-22T10:07:10;28.50;34.50
52973;DHT22;38837;48.916;2.336;2024-03-22T10:09:11;28.40;34.50
52973;DHT22;38837;48.916;2.336;2024-03-22T10:11:13;28.50;34.60
52973;DHT22;38837;48.916;2.336;2024-03-22T10:13:14;28.50;34.50
52973;DHT22;38837;48.916;2.336;2024-03-22T10:15:17;28.50;34.50
52973;DHT22;38837;48.916;2.336;2024-03-22T10:17:19;28.50;34.50
52973;DHT22;38837;48.916;2.336;2024-03-22T10:19:27;28.50;34.50
52973;DHT22;38837;48.916;2.336;2024-03-22T10:21:28;28.50;34.50
52973;DHT22;38837;48.916;2.336;2024-03-22T10:23:38;28.50;34.40
52973;DHT22;38837;48.916;2.336;2024-03-22T10:25:41;28.50;34.40
52973;DHT22;38837;48.916;2.336;2024-03-22T10:27:45;28.50;34.40
52973;DHT22;38837;48.916;2.336;2024-03-22T10:29:47;28.50;34.50
52973;DHT22;38837;48.916;2.336;2024-03-22T10:31:51;28.50;34.50
52973;DHT22;38837;48.916;2.336;2024-03-22T10:33:58;28.50;34.50
52973;DHT22;38837;48.916;2.336;2024-03-22T10:36:00;28.50;34.50
52973;DHT22;38837;48.916;2.336;2024-03-22T10:38:04;28.50;34.60
52973;DHT22;38837;48.916;2.336;2024-03-22T10:40:06;28.50;34.50
52973;DHT22;38837;48.916;2.336;2024-03-22T10:42:11;28.50;34.50
52973;DHT22;38837;48.916;2.336;2024-03-22T10:44:17;28.60;34.60
52973;DHT22;38837;48.916;2.336;2024-03-22T10:46:20;28.60;34.50
52973;DHT22;38837;48.916;2.336;2024-03-22T10:48:26;28.60;34.50
52973;DHT22;38837;48.916;2.336;2024-03-22T10:50:31;28.60;34.50
52973;DHT22;38837;48.916;2.336;2024-03-22T10:52:57;28.60;34.40
52973;DHT22;38837;48.916;2.336;2024-03-22T10:55:07;28.70;34.50
52973;DHT22;38837;48.916;2.336;2024-03-22T10:57:13;28.60;34.40
52973;DHT22;38837;48.916;2.336;2024-03-22T10:59:22;28.60;34.40
52973;DHT22;38837;48.916;2.336;2024-03-22T11:01:25;28.60;34.40
52973;DHT22;38837;48.916;2.336;2024-03-22T11:03:27;28.60;34.40
52973;DHT22;38837;48.916;2.336;2024-03-22T11:05:30;28.60;34.50
52973;DHT22;38837;48.916;2.336;2024-03-22T11:07:31;28.60;34.50
52973;DHT22;38837;48.916;2.336;2024-03-22T11:09:33;28.60;34.50
52973;DHT22;38837;48.916;2.336;2024-03-22T11:11:35;28.60;34.50
52973;DHT22;38837;48.916;2.336;2024-03-22T11:13:40;28.60;34.50
52973;DHT22;38837;48.916;2.336;2024-03-22T11:15:41;28.70;34.50
52973;DHT22;38837;48.916;2.336;2024-03-22T11:17:43;28.70;34.50
52973;DHT22;38837;48.916;2.336;2024-03-22T11:19:44;28.70;34.40
52973;DHT22;38837;48.916;2.336;2024-03-22T11:21:46;28.80;34.50
52973;DHT22;38837;48.916;2.336;2024-03-22T11:23:47;28.80;34.50
52973;DHT22;38837;48.916;2.336;2024-03-22T11:25:49;28.70;34.50
52973;DHT22;38837;48.916;2.336;2024-03-22T11:27:50;28.70;34.50
52973;DHT22;38837;48.916;2.336;2024-03-22T11:29:51;28.70;34.50
52973;DHT22;38837;48.916;2.336;2024-03-22T11:31:56;28.70;34.60
52973;DHT22;38837;48.916;2.336;2024-03-22T11:33:57;28.70;34.60
52973;DHT22;38837;48.916;2.336;2024-03-22T11:35:59;28.70;34.60
52973;DHT22;38837;48.916;2.336;2024-03-22T11:38:01;28.70;34.60
52973;DHT22;38837;48.916;2.336;2024-03-22T11:40:03;28.70;34.50
52973;DHT22;38837;48.916;2.336;2024-03-22T11:42:06;28.70;34.60
52973;DHT22;38837;48.916;2.336;2024-03-22T11:44:10;28.70;34.50
52973;DHT22;38837;48.916;2.336;2024-03-22T11:46:12;28.70;34.50
52973;DHT22;38837;48.916;2.336;2024-03-22T11:48:13;28.80;34.50
52973;DHT22;38837;48.916;2.336;2024-03-22T11:50:15;28.80;34.50
52973;DHT22;38837;48.916;2.336;2024-03-22T11:52:17;28.80;34.50
52973;DHT22;38837;48.916;2.336;2024-03-22T11:54:21;28.80;34.40
52973;DHT22;38837;48.916;2.336;2024-03-22T11:56:24;28.80;34.40
52973;DHT22;38837;48.916;2.336;2024-03-22T11:58:27;28.80;34.40
52973;DHT22;38837;48.916;2.336;2024-03-22T12:00:28;28.80;34.40
52973;DHT22;38837;48.916;2.336;2024-03-22T12:02:32;28.80;34.40
52973;DHT22;38837;48.916;2.336;2024-03-22T12:04:33;28.80;34.40
52973;DHT22;38837;48.916;2.336;2024-03-22T12:06:34;28.80;34.40
52973;DHT22;38837;48.916;2.336;2024-03-22T12:08:37;28.70;34.40
52973;DHT22;38837;48.916;2.336;2024-03-22T12:10:39;28.80;34.90
52973;DHT22;38837;48.916;2.336;2024-03-22T12:12:41;29.00;34.60
52973;DHT22;38837;48.916;2.336;2024-03-22T12:14:42;29.10;34.80
52973;DHT22;38837;48.916;2.336;2024-03-22T12:16:43;29.20;34.70
52973;DHT22;38837;48.916;2.336;2024-03-22T12:18:45;29.20;34.80
52973;DHT22;38837;48.916;2.336;2024-03-22T12:20:46;29.20;34.70
52973;DHT22;38837;48.916;2.336;2024-03-22T12:22:47;29.30;34.70
52973;DHT22;38837;48.916;2.336;2024-03-22T12:24:49;29.30;34.50
52973;DHT22;38837;48.916;2.336;2024-03-22T12:26:50;29.30;34.90
52973;DHT22;38837;48.916;2.336;2024-03-22T12:28:52;29.20;34.50
52973;DHT22;38837;48.916;2.336;2024-03-22T12:30:53;29.10;34.20
52973;DHT22;38837;48.916;2.336;2024-03-22T12:32:56;29.20;34.40
52973;DHT22;38837;48.916;2.336;2024-03-22T12:34:57;29.10;34.30
52973;DHT22;38837;48.916;2.336;2024-03-22T12:36:59;29.10;34.60
52973;DHT22;38837;48.916;2.336;2024-03-22T12:39:00;29.10;34.30
52973;DHT22;38837;48.916;2.336;2024-03-22T12:41:02;29.00;34.30
52973;DHT22;38837;48.916;2.336;2024-03-22T12:43:04;29.00;34.20
52973;DHT22;38837;48.916;2.336;2024-03-22T12:45:06;28.80;34.40
52973;DHT22;38837;48.916;2.336;2024-03-22T12:47:08;28.90;34.40
52973;DHT22;38837;48.916;2.336;2024-03-22T12:49:10;28.90;34.40